Time;durP1;ratioP1;P1;durP2;ratioP2;P2;SDS_P1;SDS_P2;PMS_P1;PMS_P2;Temp;Humidity;BMP_temperature;BMP_pressure;BME280_temperature;BME280_humidity;BME280_pressure;Samples;Min_cycle;Max_cycle;Signal;HPM_P1;HPM_P2
2021/03/15 00:01:07;;;;;;;5.03;1.58;;;5.50;94.20;;;;;;5055301;28;20119;-69
2021/03/15 00:03:33;;;;;;;11.32;2.00;;;5.50;94.00;;;;;;5055219;28;20041;-69
2021/03/15 00:06:00;;;;;;;6.95;2.20;;;5.50;94.10;;;;;;5054697;28;20037;-69
2021/03/15 00:08:26;;;;;;;3.22;1.60;;;5.40;94.10;;;;;;5055002;28;20404;-69
2021/03/15 00:10:52;;;;;;;2.90;1.63;;;5.40;94.00;;;;;;5054955;28;20037;-69
2021/03/15 00:13:19;;;;;;;4.55;1.60;;;5.40;94.00;;;;;;5054862;28;20033;-69
2021/03/15 00:15:47;;;;;;;5.90;1.60;;;5.40;94.10;;;;;;5054605;28;20041;-69
2021/03/15 00:18:13;;;;;;;3.88;1.40;;;5.40;94.10;;;;;;5054983;28;20112;-69
2021/03/15 00:20:39;;;;;;;8.48;1.80;;;5.40;94.00;;;;;;5054363;28;20120;-69
2021/03/15 00:23:04;;;;;;;7.13;1.65;;;5.40;94.10;;;;;;5054972;28;20060;-69
2021/03/15 00:25:31;;;;;;;9.00;2.17;;;5.40;94.20;;;;;;5054543;28;20036;-69
2021/03/15 00:27:56;;;;;;;8.52;2.75;;;5.40;94.20;;;;;;5054932;28;20041;-69
2021/03/15 00:30:22;;;;;;;7.20;2.50;;;5.40;94.30;;;;;;5037123;28;20048;-69
2021/03/15 00:32:49;;;;;;;5.05;1.63;;;5.40;94.10;;;;;;5037019;28;20055;-69
2021/03/15 00:35:16;;;;;;;4.50;1.75;;;5.40;94.00;;;;;;5054125;28;20056;-69
2021/03/15 00:37:43;;;;;;;7.47;1.80;;;5.40;94.00;;;;;;5054513;28;20037;-69
2021/03/15 00:40:12;;;;;;;8.77;1.98;;;5.40;94.20;;;;;;5054458;28;20116;-69
2021/03/15 00:42:41;;;;;;;7.93;1.63;;;5.40;94.10;;;;;;5054337;28;20068;-69
2021/03/15 00:45:07;;;;;;;3.53;1.70;;;5.40;93.90;;;;;;5053952;28;20033;-69
2021/03/15 00:47:33;;;;;;;2.97;1.33;;;5.40;94.00;;;;;;5054088;28;20040;-69
2021/03/15 00:49:59;;;;;;;6.93;1.40;;;5.40;93.90;;;;;;5054316;28;20099;-69
2021/03/15 00:52:25;;;;;;;2.67;0.90;;;5.40;94.00;;;;;;5054570;28;20037;-69
2021/03/15 00:54:50;;;;;;;8.15;1.50;;;5.30;93.90;;;;;;5054217;28;20052;-69
2021/03/15 00:57:17;;;;;;;4.93;1.20;;;5.30;93.80;;;;;;5053990;28;20061;-69
2021/03/15 00:59:44;;;;;;;6.93;1.17;;;5.30;93.90;;;;;;5053949;28;20548;-69
2021/03/15 01:02:10;;;;;;;4.88;1.00;;;5.30;93.90;;;;;;5054107;28;20053;-69
2021/03/15 01:04:36;;;;;;;4.57;0.80;;;5.30;93.90;;;;;;5053551;28;20037;-69
2021/03/15 01:07:04;;;;;;;5.63;1.33;;;5.30;93.80;;;;;;5054373;28;20345;-69
2021/03/15 01:09:30;;;;;;;3.30;1.73;;;5.20;93.70;;;;;;5053868;28;20504;-69
2021/03/15 01:11:58;;;;;;;1.60;0.65;;;5.10;93.70;;;;;;5053785;28;20044;-69
2021/03/15 01:14:24;;;;;;;3.22;0.95;;;5.10;93.80;;;;;;5053555;28;20041;-70
2021/03/15 01:16:50;;;;;;;4.18;0.70;;;5.10;93.90;;;;;;5054031;28;20037;-69
2021/03/15 01:19:15;;;;;;;5.43;0.75;;;5.00;93.90;;;;;;5054070;28;20041;-69
2021/03/15 01:21:41;;;;;;;2.80;1.00;;;5.00;93.90;;;;;;5054177;28;20354;-69
2021/03/15 01:24:07;;;;;;;3.40;1.02;;;4.90;94.10;;;;;;5053644;28;20032;-69
2021/03/15 01:26:33;;;;;;;4.28;1.05;;;4.90;94.00;;;;;;5053344;28;20033;-69
2021/03/15 01:29:00;;;;;;;4.45;1.05;;;4.80;94.10;;;;;;5053533;28;20188;-69
2021/03/15 01:31:26;;;;;;;6.97;1.15;;;4.80;94.10;;;;;;5053415;28;20037;-69
2021/03/15 01:33:53;;;;;;;6.53;0.90;;;4.80;94.10;;;;;;5054053;28;20099;-69
2021/03/15 01:36:18;;;;;;;5.25;2.25;;;4.70;94.10;;;;;;5053122;28;20033;-69
2021/03/15 01:38:44;;;;;;;4.38;0.90;;;4.70;94.10;;;;;;5053205;28;20036;-69
2021/03/15 01:41:10;;;;;;;3.58;0.98;;;4.70;94.10;;;;;;5053365;28;20052;-69
2021/03/15 01:43:36;;;;;;;5.28;1.05;;;4.60;94.10;;;;;;5035453;28;20037;-69
2021/03/15 01:46:02;;;;;;;3.47;0.70;;;4.60;94.20;;;;;;5053374;28;20072;-69
2021/03/15 01:48:28;;;;;;;4.20;0.73;;;4.60;94.30;;;;;;5053677;28;20491;-69
2021/03/15 01:50:54;;;;;;;2.92;0.77;;;4.60;94.30;;;;;;5053168;28;20041;-69
2021/03/15 01:53:20;;;;;;;2.40;0.70;;;4.60;94.30;;;;;;5035962;28;20056;-69
2021/03/15 01:55:47;;;;;;;1.90;0.70;;;4.50;94.30;;;;;;5052716;28;20182;-69
2021/03/15 01:58:14;;;;;;;4.80;0.90;;;4.50;94.40;;;;;;5053396;28;20037;-69
2021/03/15 02:00:41;;;;;;;3.45;1.00;;;4.50;94.40;;;;;;5053255;28;20072;-69
2021/03/15 02:03:07;;;;;;;4.60;0.70;;;4.50;94.40;;;;;;5053584;28;20045;-69
2021/03/15 02:05:36;;;;;;;2.67;0.80;;;4.50;94.40;;;;;;5052519;28;20496;-69
2021/03/15 02:08:03;;;;;;;2.45;0.80;;;4.40;94.30;;;;;;5053242;28;20087;-69
2021/03/15 02:10:29;;;;;;;4.43;1.00;;;4.40;94.50;;;;;;5053521;28;20185;-69
2021/03/15 02:13:28;;;;;;;4.07;1.08;;;4.40;94.60;;;;;;5053331;28;20120;-69
2021/03/15 02:16:05;;;;;;;3.65;0.90;;;4.50;94.60;;;;;;5052596;28;20044;-69
2021/03/15 02:18:37;;;;;;;5.25;0.90;;;4.40;94.50;;;;;;5053248;28;20480;-69
2021/03/15 02:21:24;;;;;;;3.55;1.08;;;4.40;94.40;;;;;;5053022;28;20101;-69
2021/03/15 02:24:11;;;;;;;4.05;1.15;;;4.40;94.30;;;;;;5052906;28;20040;-69
2021/03/15 02:27:10;;;;;;;2.75;1.35;;;4.30;94.30;;;;;;5053174;28;20369;-69
2021/03/15 02:30:10;;;;;;;1.45;0.88;;;4.20;94.40;;;;;;5053187;28;20037;-69
2021/03/15 02:33:01;;;;;;;3.97;1.50;;;4.20;94.50;;;;;;5052946;28;20041;-69
2021/03/15 02:35:30;;;;;;;3.30;1.20;;;4.20;94.60;;;;;;5051409;28;20052;-69
2021/03/15 02:38:08;;;;;;;7.03;1.63;;;4.20;94.50;;;;;;5052506;28;20116;-69
2021/03/15 02:40:35;;;;;;;3.83;1.35;;;4.30;94.90;;;;;;5053096;28;20499;-69
2021/03/15 02:43:06;;;;;;;3.78;2.03;;;4.20;94.90;;;;;;5054803;28;20033;-69
2021/03/15 02:45:34;;;;;;;4.47;1.63;;;4.30;94.90;;;;;;5056705;28;20036;-69
2021/03/15 02:48:03;;;;;;;5.55;1.52;;;4.30;94.90;;;;;;5057030;28;20064;-69
2021/03/15 02:50:30;;;;;;;5.15;1.60;;;4.30;94.80;;;;;;5056879;28;20365;-69
2021/03/15 02:52:57;;;;;;;4.35;1.55;;;4.20;94.80;;;;;;5056569;28;20041;-69
2021/03/15 02:55:28;;;;;;;4.60;1.58;;;4.30;94.90;;;;;;5056023;28;20041;-69
2021/03/15 02:57:55;;;;;;;5.43;1.95;;;4.30;95.20;;;;;;5056882;28;20438;-69
2021/03/15 03:00:23;;;;;;;5.43;2.22;;;4.30;94.90;;;;;;5056205;28;20029;-69
2021/03/15 03:02:50;;;;;;;8.27;1.88;;;4.30;94.80;;;;;;5056286;28;20037;-69
2021/03/15 03:05:18;;;;;;;5.45;1.90;;;4.20;94.70;;;;;;5055870;28;20041;-69
2021/03/15 03:07:46;;;;;;;4.22;2.08;;;4.20;94.80;;;;;;5056268;28;20089;-69
2021/03/15 03:10:14;;;;;;;6.13;2.42;;;4.20;94.80;;;;;;5056008;28;20033;-69
2021/03/15 03:12:41;;;;;;;6.25;1.90;;;4.20;94.90;;;;;;5056484;28;20044;-69
2021/03/15 03:15:10;;;;;;;6.97;2.10;;;4.20;94.80;;;;;;5055826;28;20044;-69
2021/03/15 03:17:40;;;;;;;8.65;3.30;;;4.20;94.90;;;;;;5056586;28;20377;-69
2021/03/15 03:20:12;;;;;;;4.15;2.00;;;4.20;94.80;;;;;;5056767;28;20045;-69
2021/03/15 03:22:41;;;;;;;10.68;2.30;;;4.20;94.90;;;;;;5055807;28;20072;-69
2021/03/15 03:25:10;;;;;;;5.45;2.08;;;4.30;95.00;;;;;;5055959;28;20037;-69
2021/03/15 03:27:38;;;;;;;4.55;1.90;;;4.30;95.00;;;;;;5055995;28;20127;-69
2021/03/15 03:30:06;;;;;;;9.93;2.42;;;4.30;95.20;;;;;;5055962;28;20033;-69
2021/03/15 03:32:35;;;;;;;6.03;2.30;;;4.40;95.20;;;;;;5055730;28;20091;-69
2021/03/15 03:35:02;;;;;;;7.05;2.60;;;4.40;95.10;;;;;;5055794;28;20045;-69
2021/03/15 03:37:29;;;;;;;6.18;2.30;;;4.40;95.10;;;;;;5055388;28;20095;-69
2021/03/15 03:39:55;;;;;;;8.68;2.42;;;4.50;95.20;;;;;;5056048;28;20041;-69
2021/03/15 03:42:21;;;;;;;9.30;2.80;;;4.50;95.20;;;;;;5055401;28;20111;-69
2021/03/15 03:44:46;;;;;;;8.20;3.08;;;4.50;95.30;;;;;;5055582;28;20499;-70
2021/03/15 03:47:14;;;;;;;8.65;2.70;;;4.50;95.20;;;;;;5055912;28;20040;-69
2021/03/15 03:49:40;;;;;;;9.43;3.55;;;4.60;95.20;;;;;;5055853;28;20048;-69
2021/03/15 03:52:07;;;;;;;18.10;4.78;;;4.60;95.00;;;;;;5055843;28;20041;-69
2021/03/15 03:54:45;;;;;;;11.15;3.10;;;4.60;95.00;;;;;;5054747;28;20040;-70
2021/03/15 03:57:12;;;;;;;13.95;4.90;;;4.60;95.00;;;;;;5055257;28;20048;-69
2021/03/15 03:59:46;;;;;;;13.77;4.32;;;4.70;95.00;;;;;;5055424;28;20065;-69
2021/03/15 04:02:12;;;;;;;;;;;4.70;95.10;;;;;;5056053;28;20045;-69
2021/03/15 04:04:46;;;;;;;12.20;3.80;;;4.60;95.00;;;;;;5054758;28;19916;-70
2021/03/15 04:07:16;;;;;;;13.90;3.92;;;4.60;95.00;;;;;;5055234;28;20392;-69
2021/03/15 04:09:45;;;;;;;14.75;3.80;;;4.60;94.90;;;;;;5055163;28;20051;-69
2021/03/15 04:12:16;;;;;;;12.63;4.32;;;4.60;94.90;;;;;;5055401;28;20048;-69
2021/03/15 04:14:50;;;;;;;11.57;3.35;;;4.60;94.90;;;;;;5054957;28;20297;-69
2021/03/15 04:17:23;;;;;;;14.20;4.70;;;4.60;94.90;;;;;;5055260;28;20048;-69
2021/03/15 04:19:54;;;;;;;14.48;4.13;;;4.60;94.90;;;;;;5055012;28;20049;-69
2021/03/15 04:22:22;;;;;;;11.95;4.40;;;4.60;95.00;;;;;;5054794;28;20052;-69
2021/03/15 04:24:49;;;;;;;16.02;3.95;;;4.50;95.00;;;;;;5054386;28;20037;-69
2021/03/15 04:27:15;;;;;;;12.20;4.80;;;4.50;95.00;;;;;;5055156;28;20072;-69
2021/03/15 04:29:42;;;;;;;12.43;4.22;;;4.50;95.00;;;;;;5054649;28;20059;-69
2021/03/15 04:32:09;;;;;;;13.70;4.15;;;4.50;95.00;;;;;;5054771;28;20049;-69
2021/03/15 04:34:36;;;;;;;16.23;4.72;;;4.50;95.10;;;;;;5054218;28;20049;-69
2021/03/15 04:37:04;;;;;;;17.50;5.28;;;4.50;95.10;;;;;;5054372;28;20040;-70
2021/03/15 04:39:34;;;;;;;15.73;4.85;;;4.50;95.00;;;;;;5055111;28;20040;-69
2021/03/15 04:42:01;;;;;;;18.45;5.57;;;4.50;95.10;;;;;;5054403;28;20041;-69
2021/03/15 04:44:27;;;;;;;24.27;5.28;;;4.50;95.10;;;;;;5054088;28;20100;-70
2021/03/15 04:46:54;;;;;;;21.85;4.88;;;4.50;95.10;;;;;;5054471;28;20036;-69
2021/03/15 04:49:21;;;;;;;17.48;4.53;;;4.50;95.00;;;;;;5054202;28;20044;-69
2021/03/15 04:51:47;;;;;;;21.27;5.20;;;4.50;95.10;;;;;;5054146;28;20048;-69
2021/03/15 04:54:13;;;;;;;23.65;5.32;;;4.50;95.10;;;;;;5054710;28;20475;-69
2021/03/15 04:56:39;;;;;;;20.33;5.20;;;4.50;95.10;;;;;;5053655;28;20111;-69
2021/03/15 04:59:07;;;;;;;28.48;5.22;;;4.50;95.10;;;;;;5053925;28;20045;-70
2021/03/15 05:01:36;;;;;;;18.42;5.50;;;4.50;95.20;;;;;;5054435;28;20045;-69
2021/03/15 05:04:07;;;;;;;18.58;4.85;;;4.50;95.10;;;;;;5054206;28;20094;-69
2021/03/15 05:06:34;;;;;;;31.20;5.45;;;4.50;95.20;;;;;;5053000;28;20037;-69
2021/03/15 05:09:01;;;;;;;26.80;5.85;;;4.60;95.20;;;;;;5053741;28;20049;-69
2021/03/15 05:11:31;;;;;;;19.50;5.72;;;4.60;95.10;;;;;;5053799;28;20044;-69
2021/03/15 05:14:00;;;;;;;21.77;5.45;;;4.50;95.10;;;;;;5054033;28;20119;-69
2021/03/15 05:16:29;;;;;;;21.23;5.28;;;4.50;95.10;;;;;;5053357;28;20438;-69
2021/03/15 05:18:56;;;;;;;28.05;6.72;;;4.50;95.30;;;;;;5054239;28;20107;-69
2021/03/15 05:21:23;;;;;;;21.02;4.18;;;4.60;95.40;;;;;;5054193;28;20041;-69
2021/03/15 05:23:50;;;;;;;22.90;5.05;;;4.70;95.40;;;;;;5054161;28;20061;-69
2021/03/15 05:26:17;;;;;;;18.42;4.25;;;4.70;95.30;;;;;;5053326;28;20041;-69
2021/03/15 05:28:46;;;;;;;23.05;6.22;;;4.70;95.30;;;;;;5053564;28;20082;-69
2021/03/15 05:31:13;;;;;;;26.17;4.65;;;4.70;95.20;;;;;;5053542;28;20033;-70
2021/03/15 05:33:39;;;;;;;23.33;5.38;;;4.70;95.30;;;;;;5053407;28;20052;-69
2021/03/15 05:36:09;;;;;;;27.38;5.75;;;4.70;95.20;;;;;;5053040;28;20483;-69
2021/03/15 05:38:37;;;;;;;17.30;4.32;;;4.80;95.20;;;;;;5035449;28;20045;-69
2021/03/15 05:41:07;;;;;;;36.38;6.22;;;4.70;95.00;;;;;;5053423;28;20488;-69
2021/03/15 05:43:49;;;;;;;31.38;4.72;;;4.70;95.00;;;;;;5053877;28;20056;-69
2021/03/15 05:46:57;;;;;;;16.67;4.03;;;4.80;95.00;;;;;;5053035;28;20068;-69
2021/03/15 05:50:02;;;;;;;23.67;5.28;;;4.80;94.80;;;;;;5053458;28;20480;-69
2021/03/15 05:52:52;;;;;;;24.55;5.10;;;4.80;94.90;;;;;;5053542;28;20392;-69
2021/03/15 05:55:37;;;;;;;20.77;4.47;;;4.70;94.80;;;;;;5052944;28;20073;-69
2021/03/15 05:58:13;;;;;;;26.08;4.43;;;4.70;94.80;;;;;;5053341;28;20041;-69
2021/03/15 06:01:23;;;;;;;22.92;4.22;;;4.70;94.80;;;;;;5053066;28;20451;-69
2021/03/15 06:04:00;;;;;;;24.00;5.60;;;4.80;94.70;;;;;;4991781;28;20092;-69
2021/03/15 06:06:36;;;;;;;28.92;4.90;;;4.80;94.70;;;;;;5048502;28;20045;-69
2021/03/15 06:09:03;;;;;;;26.60;4.00;;;4.80;94.70;;;;;;5053119;28;20086;-69
2021/03/15 06:11:42;;;;;;;29.77;5.70;;;4.80;94.60;;;;;;5052753;28;20381;-69
2021/03/15 06:14:08;;;;;;;30.30;5.47;;;4.80;94.60;;;;;;5053403;28;20048;-69
2021/03/15 06:16:35;;;;;;;26.02;4.40;;;4.90;94.60;;;;;;5052874;28;20037;-69
2021/03/15 06:19:01;;;;;;;21.67;5.45;;;4.90;94.60;;;;;;5056670;28;20037;-70
2021/03/15 06:21:27;;;;;;;24.75;4.63;;;4.90;94.50;;;;;;5056950;28;20047;-68
2021/03/15 06:23:59;;;;;;;24.63;4.80;;;5.00;94.50;;;;;;5057332;28;20036;-69
2021/03/15 06:26:26;;;;;;;24.92;4.43;;;5.00;94.50;;;;;;5056742;28;20087;-69
2021/03/15 06:28:52;;;;;;;36.03;5.35;;;5.00;94.30;;;;;;5056685;28;20049;-69
2021/03/15 06:31:18;;;;;;;31.00;5.10;;;5.00;94.20;;;;;;5056579;28;20045;-69
2021/03/15 06:33:45;;;;;;;30.65;5.85;;;5.00;94.20;;;;;;5057078;28;20525;-69
2021/03/15 06:36:13;;;;;;;26.67;5.90;;;5.00;94.10;;;;;;5056314;28;20086;-69
2021/03/15 06:38:40;;;;;;;20.48;4.65;;;5.10;93.90;;;;;;5056410;28;20041;-69
2021/03/15 06:41:08;;;;;;;28.20;6.25;;;5.10;93.90;;;;;;5056670;28;20080;-69
2021/03/15 06:43:34;;;;;;;26.40;4.85;;;5.10;94.10;;;;;;5056732;28;20036;-69
2021/03/15 06:46:00;;;;;;;31.88;5.55;;;5.10;94.00;;;;;;5056297;28;20450;-69
2021/03/15 06:48:26;;;;;;;28.60;5.63;;;5.20;94.00;;;;;;5056380;28;20032;-69
2021/03/15 06:50:54;;;;;;;24.90;4.90;;;5.20;93.90;;;;;;5056994;28;20358;-69
2021/03/15 06:53:20;;;;;;;24.48;5.60;;;5.30;93.90;;;;;;5057129;28;20049;-69
2021/03/15 06:55:52;;;;;;;29.75;5.53;;;5.30;93.80;;;;;;5056142;28;20083;-69
2021/03/15 06:58:17;;;;;;;22.90;4.07;;;5.40;94.00;;;;;;5038830;28;20072;-69
2021/03/15 07:00:43;;;;;;;23.90;5.10;;;5.40;94.10;;;;;;5056409;28;20068;-69
2021/03/15 07:03:09;;;;;;;30.15;5.93;;;5.50;93.90;;;;;;5056200;28;20566;-69
2021/03/15 07:05:34;;;;;;;34.55;6.38;;;5.50;93.70;;;;;;5055803;28;20037;-69
2021/03/15 07:08:01;;;;;;;31.33;4.85;;;5.50;93.80;;;;;;5056629;28;20471;-69
2021/03/15 07:10:32;;;;;;;26.55;5.28;;;5.50;93.80;;;;;;5056181;28;20037;-69
2021/03/15 07:13:17;;;;;;;36.67;5.22;;;5.50;93.70;;;;;;5056509;28;20069;-69
2021/03/15 07:15:44;;;;;;;31.45;5.63;;;5.60;93.60;;;;;;5055692;28;20095;-69
2021/03/15 07:18:11;;;;;;;34.35;4.75;;;5.60;93.60;;;;;;5055921;28;20033;-69
2021/03/15 07:20:58;;;;;;;28.50;7.07;;;5.70;93.60;;;;;;5056157;28;20041;-69
2021/03/15 07:23:48;;;;;;;29.95;5.68;;;5.70;93.70;;;;;;5056138;28;20116;-69
2021/03/15 07:26:17;;;;;;;26.55;5.25;;;5.80;93.50;;;;;;5055968;28;20087;-69
2021/03/15 07:28:43;;;;;;;24.58;5.22;;;5.90;93.30;;;;;;5055426;28;20124;-69
2021/03/15 07:31:23;;;;;;;25.63;5.28;;;6.00;93.10;;;;;;5055585;28;20067;-69
2021/03/15 07:33:54;;;;;;;20.63;6.22;;;6.00;93.00;;;;;;5055510;28;20037;-69
2021/03/15 07:36:21;;;;;;;31.92;6.35;;;6.00;93.20;;;;;;5055481;28;20045;-69
2021/03/15 07:38:48;;;;;;;20.58;4.25;;;6.00;93.20;;;;;;5055445;28;20037;-69
2021/03/15 07:41:16;;;;;;;20.83;4.32;;;6.10;93.30;;;;;;5038057;28;20048;-69
2021/03/15 07:43:42;;;;;;;23.83;4.72;;;6.00;93.50;;;;;;5055480;28;20116;-69
2021/03/15 07:46:27;;;;;;;31.83;4.53;;;6.10;93.40;;;;;;5055321;28;20037;-69
2021/03/15 07:48:57;;;;;;;16.80;3.83;;;6.10;93.50;;;;;;5055768;28;20211;-69
2021/03/15 07:51:30;;;;;;;19.90;4.30;;;6.10;93.60;;;;;;5037994;28;20048;-69
2021/03/15 07:54:23;;;;;;;27.35;4.47;;;6.20;93.50;;;;;;5055648;28;20059;-69
2021/03/15 07:57:18;;;;;;;23.67;4.70;;;6.30;93.30;;;;;;5052940;28;20123;-69
2021/03/15 07:59:57;;;;;;;20.92;4.68;;;6.40;93.40;;;;;;5055458;28;20043;-69
2021/03/15 08:02:34;;;;;;;22.65;4.00;;;6.40;93.20;;;;;;5055219;28;20411;-69
2021/03/15 08:05:00;;;;;;;25.58;4.53;;;6.50;92.90;;;;;;5054682;28;20493;-69
2021/03/15 08:07:26;;;;;;;33.78;5.95;;;6.60;92.90;;;;;;5055613;28;20469;-69
2021/03/15 08:09:57;;;;;;;25.13;5.53;;;6.60;92.90;;;;;;5055427;28;20044;-69
2021/03/15 08:12:24;;;;;;;35.65;5.47;;;6.60;92.80;;;;;;5055567;28;20041;-69
2021/03/15 08:15:13;;;;;;;26.35;4.65;;;6.70;92.60;;;;;;5054567;28;20041;-69
2021/03/15 08:17:44;;;;;;;30.45;5.35;;;6.70;92.70;;;;;;5055260;28;20041;-69
2021/03/15 08:20:11;;;;;;;36.90;5.78;;;6.70;92.20;;;;;;5055532;28;20086;-69
2021/03/15 08:22:47;;;;;;;28.80;4.35;;;6.70;92.10;;;;;;5055461;28;20490;-69
2021/03/15 08:25:14;;;;;;;22.98;4.10;;;6.60;92.10;;;;;;5054423;28;20087;-69
2021/03/15 08:27:42;;;;;;;19.30;3.35;;;6.70;92.00;;;;;;5054724;28;20044;-69
2021/03/15 08:30:17;;;;;;;24.33;4.63;;;6.60;92.10;;;;;;5054965;28;20037;-69
2021/03/15 08:32:43;;;;;;;28.17;5.85;;;6.70;91.90;;;;;;5055200;28;20041;-69
2021/03/15 08:35:13;;;;;;;26.42;5.00;;;6.80;91.80;;;;;;5054693;28;20480;-69
2021/03/15 08:38:01;;;;;;;19.60;4.72;;;6.80;91.70;;;;;;5054314;28;20071;-69
2021/03/15 08:40:42;;;;;;;22.67;4.82;;;6.80;91.40;;;;;;5053647;28;20567;-69
2021/03/15 08:43:18;;;;;;;25.52;5.45;;;6.90;91.60;;;;;;5054606;28;20037;-69
2021/03/15 08:45:47;;;;;;;24.65;4.13;;;6.90;91.40;;;;;;5054149;28;20037;-68
2021/03/15 08:48:13;;;;;;;16.63;4.07;;;6.90;91.40;;;;;;5036582;28;20055;-69
2021/03/15 08:50:41;;;;;;;29.65;5.15;;;7.00;91.00;;;;;;5054189;28;20032;-69
2021/03/15 08:53:08;;;;;;;26.55;5.97;;;7.00;90.80;;;;;;5054250;28;20041;-69
2021/03/15 08:55:45;;;;;;;27.63;4.75;;;7.10;90.40;;;;;;5053833;28;20116;-69
2021/03/15 08:58:36;;;;;;;34.15;4.60;;;7.10;90.70;;;;;;5054754;28;20116;-69
2021/03/15 09:01:06;;;;;;;22.42;3.92;;;7.10;90.50;;;;;;5054022;28;20051;-69
2021/03/15 09:03:49;;;;;;;29.15;5.40;;;7.20;90.00;;;;;;5054058;28;20037;-69
2021/03/15 09:06:40;;;;;;;31.05;5.15;;;7.20;90.00;;;;;;5053695;28;20068;-69
2021/03/15 09:09:11;;;;;;;18.60;5.20;;;7.20;90.00;;;;;;5054056;28;20119;-69
2021/03/15 09:11:36;;;;;;;24.48;4.25;;;7.20;90.30;;;;;;5036091;28;20041;-69
2021/03/15 09:14:35;;;;;;;25.30;5.25;;;7.20;90.30;;;;;;5054240;28;20537;-69
2021/03/15 09:17:02;;;;;;;23.80;4.75;;;7.20;90.00;;;;;;5053505;28;20076;-69
2021/03/15 09:19:43;;;;;;;26.25;4.70;;;7.30;89.50;;;;;;5053698;28;20041;-69
2021/03/15 09:22:30;;;;;;;26.70;4.35;;;7.30;90.00;;;;;;5054104;28;20139;-69
2021/03/15 09:25:01;;;;;;;26.67;4.82;;;7.30;89.60;;;;;;5053194;28;20072;-69
2021/03/15 09:27:30;;;;;;;24.23;4.50;;;7.50;89.00;;;;;;5053588;28;20037;-69
2021/03/15 09:29:59;;;;;;;17.55;4.45;;;7.40;89.40;;;;;;5053936;28;20395;-69
2021/03/15 09:32:35;;;;;;;17.92;4.15;;;7.40;87.80;;;;;;5053814;28;20422;-68
2021/03/15 09:35:32;;;;;;;24.13;4.53;;;7.40;87.00;;;;;;5053179;28;20507;-69
2021/03/15 09:37:58;;;;;;;14.82;3.33;;;7.50;86.50;;;;;;5053634;28;20091;-69
2021/03/15 09:40:32;;;;;;;21.13;4.53;;;7.60;85.90;;;;;;5053478;28;20065;-69
2021/03/15 09:42:58;;;;;;;18.13;4.03;;;7.70;85.70;;;;;;5053951;28;20041;-69
2021/03/15 09:45:34;;;;;;;23.65;6.13;;;7.80;85.30;;;;;;5052907;28;20041;-69
2021/03/15 09:48:02;;;;;;;14.40;4.32;;;7.90;84.00;;;;;;5053920;28;20072;-68
2021/03/15 09:50:32;;;;;;;14.57;3.78;;;7.80;84.30;;;;;;5053214;28;20047;-69
2021/03/15 09:53:09;;;;;;;19.50;4.40;;;7.90;84.80;;;;;;5053544;28;20072;-69
2021/03/15 09:55:35;;;;;;;19.48;4.10;;;8.00;85.30;;;;;;5052679;28;20384;-69
2021/03/15 09:58:05;;;;;;;26.63;3.88;;;8.00;83.30;;;;;;5053911;28;20060;-68
2021/03/15 10:00:31;;;;;;;21.08;3.55;;;7.90;83.70;;;;;;5053697;28;20464;-70
2021/03/15 10:02:56;;;;;;;28.45;5.53;;;7.70;85.50;;;;;;5053253;28;20041;-69
2021/03/15 10:05:22;;;;;;;22.48;4.53;;;7.50;85.70;;;;;;5052298;28;20091;-70
2021/03/15 10:07:48;;;;;;;24.02;4.50;;;7.50;86.80;;;;;;5053431;28;20083;-70
2021/03/15 10:10:16;;;;;;;30.98;6.28;;;7.60;88.00;;;;;;5053544;28;20037;-69
2021/03/15 10:12:43;;;;;;;28.17;5.07;;;7.70;88.30;;;;;;5053112;28;20400;-70
2021/03/15 10:15:13;;;;;;;25.30;5.03;;;7.70;88.20;;;;;;5052868;28;20037;-70
2021/03/15 10:17:39;;;;;;;28.90;4.75;;;7.80;85.30;;;;;;5053337;28;20037;-70
2021/03/15 10:20:19;;;;;;;23.20;4.63;;;7.90;83.80;;;;;;5052535;28;20052;-70
2021/03/15 10:22:45;;;;;;;20.98;4.45;;;8.00;84.20;;;;;;5053010;28;20044;-69
2021/03/15 10:25:13;;;;;;;20.30;4.93;;;7.90;84.50;;;;;;5052701;28;20033;-70
2021/03/15 10:27:39;;;;;;;17.00;3.78;;;8.00;83.90;;;;;;5053645;28;20061;-70
2021/03/15 10:30:12;;;;;;;17.58;3.83;;;8.00;83.50;;;;;;5052725;28;20048;-70
2021/03/15 10:32:41;;;;;;;23.07;4.60;;;7.90;83.00;;;;;;5052984;28;20051;-70
2021/03/15 10:35:08;;;;;;;19.10;3.50;;;8.00;83.30;;;;;;5034655;28;20282;-70
2021/03/15 10:37:37;;;;;;;22.63;4.30;;;8.10;82.90;;;;;;5052613;28;20037;-70
2021/03/15 10:40:05;;;;;;;27.13;4.57;;;8.10;83.00;;;;;;5052855;28;20107;-70
2021/03/15 10:42:31;;;;;;;23.52;4.70;;;8.20;81.20;;;;;;5052538;28;20041;-70
2021/03/15 10:44:59;;;;;;;29.52;4.40;;;8.20;82.30;;;;;;5052866;28;20041;-70
2021/03/15 10:47:33;;;;;;;11.20;3.40;;;8.30;81.90;;;;;;5053096;28;20103;-70
2021/03/15 10:50:00;;;;;;;25.27;5.20;;;8.40;80.80;;;;;;5052944;28;20047;-70
2021/03/15 10:52:33;;;;;;;19.92;4.63;;;8.30;80.60;;;;;;5052878;28;20418;-69
2021/03/15 10:55:13;;;;;;;17.65;4.28;;;8.30;81.30;;;;;;5034321;28;20041;-69
2021/03/15 10:57:57;;;;;;;22.75;4.13;;;8.30;80.90;;;;;;5052856;28;20047;-69
2021/03/15 11:00:24;;;;;;;24.88;5.75;;;8.20;81.60;;;;;;5053061;28;20037;-69
2021/03/15 11:02:50;;;;;;;25.52;4.72;;;8.30;82.50;;;;;;5052379;28;20447;-69
2021/03/15 11:05:15;;;;;;;20.98;4.28;;;8.30;82.10;;;;;;5055266;28;20045;-69
2021/03/15 11:07:41;;;;;;;22.17;4.65;;;8.20;82.20;;;;;;5055995;28;20396;-69
2021/03/15 11:10:16;;;;;;;15.20;3.63;;;8.20;82.20;;;;;;5056496;28;20036;-69
2021/03/15 11:12:48;;;;;;;13.93;3.63;;;8.30;81.50;;;;;;5056618;28;20094;-69
2021/03/15 11:15:36;;;;;;;21.77;4.50;;;8.20;82.60;;;;;;5055946;28;20038;-69
2021/03/15 11:18:09;;;;;;;19.20;4.47;;;8.20;82.00;;;;;;5038500;28;20116;-68
2021/03/15 11:20:52;;;;;;;28.00;4.70;;;8.30;80.50;;;;;;5056092;28;20551;-69
2021/03/15 11:23:37;;;;;;;16.75;3.20;;;8.30;81.80;;;;;;5055922;28;20037;-69
2021/03/15 11:26:05;;;;;;;31.92;4.90;;;8.30;81.20;;;;;;5055223;28;20072;-69
2021/03/15 11:28:33;;;;;;;22.92;4.07;;;8.30;81.10;;;;;;5056157;28;20041;-69
2021/03/15 11:30:59;;;;;;;29.38;6.75;;;8.20;80.90;;;;;;5055736;28;20095;-69
2021/03/15 11:33:28;;;;;;;29.77;5.05;;;8.20;81.30;;;;;;5055696;28;20045;-69
2021/03/15 11:35:53;;;;;;;20.75;5.43;;;8.30;81.10;;;;;;5054856;28;20040;-69
2021/03/15 11:38:23;;;;;;;22.05;4.28;;;8.40;81.70;;;;;;5055568;28;20454;-69
2021/03/15 11:40:49;;;;;;;22.83;4.38;;;8.40;81.50;;;;;;5036556;28;20045;-68
2021/03/15 11:43:15;;;;;;;17.23;5.57;;;8.40;81.50;;;;;;5054972;28;20037;-69
2021/03/15 11:45:43;;;;;;;25.05;5.15;;;8.40;80.80;;;;;;5055502;28;20056;-69
2021/03/15 11:48:10;;;;;;;21.08;4.25;;;8.30;81.00;;;;;;5055957;28;20043;-69
2021/03/15 11:50:37;;;;;;;17.80;5.10;;;8.30;81.10;;;;;;5055442;28;20040;-69
2021/03/15 11:53:04;;;;;;;18.08;4.50;;;8.40;80.60;;;;;;5055286;28;20119;-69
2021/03/15 11:55:31;;;;;;;21.98;4.95;;;8.40;79.40;;;;;;5055245;28;20037;-69
2021/03/15 11:57:57;;;;;;;16.77;4.03;;;8.40;80.50;;;;;;5055298;28;20033;-69
2021/03/15 12:00:23;;;;;;;28.48;6.50;;;8.40;79.80;;;;;;5055260;28;20037;-69
2021/03/15 12:02:50;;;;;;;21.40;4.22;;;8.50;80.50;;;;;;5055344;28;20068;-69
2021/03/15 12:05:17;;;;;;;24.75;5.05;;;8.50;80.80;;;;;;5037081;28;20045;-69
2021/03/15 12:07:43;;;;;;;27.25;4.57;;;8.50;80.40;;;;;;5055810;28;20044;-69
2021/03/15 12:10:11;;;;;;;19.55;3.78;;;8.50;79.50;;;;;;5055475;28;20521;-69
2021/03/15 12:12:37;;;;;;;21.17;3.42;;;8.50;78.90;;;;;;5055366;28;20469;-69
2021/03/15 12:15:13;;;;;;;22.67;4.78;;;8.50;79.50;;;;;;5054640;28;20041;-69
2021/03/15 12:17:39;;;;;;;25.17;4.55;;;8.60;80.00;;;;;;5054803;28;20040;-69
2021/03/15 12:20:07;;;;;;;19.85;3.88;;;8.90;80.00;;;;;;5055164;28;20037;-69
2021/03/15 12:22:33;;;;;;;16.77;3.78;;;8.80;77.90;;;;;;5036963;28;20036;-69
2021/03/15 12:24:58;;;;;;;22.90;3.90;;;8.90;77.40;;;;;;5055056;28;20055;-69
2021/03/15 12:27:24;;;;;;;21.13;4.10;;;8.80;78.00;;;;;;5054795;28;20041;-68
2021/03/15 12:29:50;;;;;;;25.02;4.40;;;8.80;79.20;;;;;;5055352;28;20064;-68
2021/03/15 12:32:16;;;;;;;27.48;5.00;;;8.70;79.50;;;;;;5055136;28;20119;-68
2021/03/15 12:34:41;;;;;;;20.67;5.10;;;8.70;80.00;;;;;;5054419;28;20036;-69
2021/03/15 12:37:07;;;;;;;25.20;4.03;;;8.80;77.90;;;;;;5054425;28;20037;-69
2021/03/15 12:39:33;;;;;;;23.02;5.05;;;8.70;77.80;;;;;;5054999;28;20384;-69
2021/03/15 12:41:59;;;;;;;20.27;3.67;;;8.70;76.30;;;;;;5054949;28;20545;-69
2021/03/15 12:44:25;;;;;;;19.90;3.80;;;8.70;77.50;;;;;;5054555;28;20071;-69
2021/03/15 12:46:51;;;;;;;18.02;4.10;;;8.60;78.90;;;;;;5054530;28;20040;-71
2021/03/15 12:49:17;;;;;;;17.88;3.70;;;8.60;78.20;;;;;;5054394;28;20040;-72
2021/03/15 12:51:43;;;;;;;22.73;4.95;;;8.70;78.70;;;;;;5053575;28;20073;-72
2021/03/15 12:54:10;;;;;;;24.80;4.43;;;8.60;79.10;;;;;;5054089;28;20070;-72
2021/03/15 12:56:36;;;;;;;21.60;3.40;;;8.60;78.10;;;;;;5035872;28;20043;-72
2021/03/15 12:59:02;;;;;;;26.60;5.15;;;8.60;79.10;;;;;;5054460;28;20447;-72
2021/03/15 13:01:28;;;;;;;24.10;5.28;;;8.60;79.10;;;;;;5053945;28;20037;-72
2021/03/15 13:03:54;;;;;;;19.48;5.40;;;8.60;79.20;;;;;;5054048;28;20037;-72
2021/03/15 13:06:20;;;;;;;23.80;4.35;;;8.50;80.40;;;;;;5053752;28;20125;-72